sensor_id;sensor_type;location;lat;lon;timestamp;P1;durP1;ratioP1;P2;durP2;ratioP2
39874;SDS011;25547;52.530;13.194;2022-09-24T06:37:14;7.13;;;3.58;;
39874;SDS011;25547;52.530;13.194;2022-09-24T06:39:40;6.35;;;3.25;;
39874;SDS011;25547;52.530;13.194;2022-09-24T06:42:05;4.47;;;3.20;;
39874;SDS011;25547;52.530;13.194;2022-09-24T06:44:31;4.38;;;3.05;;
39874;SDS011;25547;52.530;13.194;2022-09-24T06:46:58;6.32;;;3.03;;
39874;SDS011;25547;52.530;13.194;2022-09-24T06:49:25;5.28;;;3.28;;
39874;SDS011;25547;52.530;13.194;2022-09-24T06:51:52;6.03;;;3.65;;
39874;SDS011;25547;52.530;13.194;2022-09-24T06:54:18;5.55;;;4.25;;
39874;SDS011;25547;52.530;13.194;2022-09-24T06:56:44;7.57;;;3.60;;
39874;SDS011;25547;52.530;13.194;2022-09-24T06:59:10;10.63;;;5.70;;
39874;SDS011;25547;52.530;13.194;2022-09-24T07:01:35;14.73;;;9.05;;
39874;SDS011;25547;52.530;13.194;2022-09-24T07:04:01;20.20;;;12.02;;
39874;SDS011;25547;52.530;13.194;2022-09-24T07:06:31;6.47;;;3.72;;
39874;SDS011;25547;52.530;13.194;2022-09-24T07:09:18;11.68;;;4.00;;
39874;SDS011;25547;52.530;13.194;2022-09-24T07:11:43;7.43;;;3.53;;
39874;SDS011;25547;52.530;13.194;2022-09-24T07:14:10;8.50;;;3.67;;
39874;SDS011;25547;52.530;13.194;2022-09-24T07:16:37;4.32;;;3.17;;
39874;SDS011;25547;52.530;13.194;2022-09-24T07:19:02;7.38;;;3.63;;
39874;SDS011;25547;52.530;13.194;2022-09-24T07:21:30;9.55;;;4.18;;
39874;SDS011;25547;52.530;13.194;2022-09-24T07:23:56;5.40;;;3.45;;
39874;SDS011;25547;52.530;13.194;2022-09-24T07:26:23;6.40;;;2.83;;
39874;SDS011;25547;52.530;13.194;2022-09-24T07:28:51;7.13;;;4.20;;
39874;SDS011;25547;52.530;13.194;2022-09-24T07:31:19;6.22;;;3.40;;
39874;SDS011;25547;52.530;13.194;2022-09-24T07:33:45;7.57;;;4.93;;
39874;SDS011;25547;52.530;13.194;2022-09-24T07:36:13;10.65;;;5.00;;
39874;SDS011;25547;52.530;13.194;2022-09-24T07:38:41;6.15;;;3.13;;
39874;SDS011;25547;52.530;13.194;2022-09-24T07:41:07;20.42;;;10.43;;
39874;SDS011;25547;52.530;13.194;2022-09-24T07:43:33;9.85;;;3.60;;
39874;SDS011;25547;52.530;13.194;2022-09-24T07:45:59;4.93;;;3.15;;
39874;SDS011;25547;52.530;13.194;2022-09-24T07:48:25;4.85;;;3.17;;
39874;SDS011;25547;52.530;13.194;2022-09-24T07:50:50;6.68;;;3.05;;
39874;SDS011;25547;52.530;13.194;2022-09-24T07:53:18;4.95;;;2.65;;
39874;SDS011;25547;52.530;13.194;2022-09-24T07:55:45;5.18;;;3.50;;
39874;SDS011;25547;52.530;13.194;2022-09-24T07:58:11;4.72;;;3.03;;
39874;SDS011;25547;52.530;13.194;2022-09-24T08:00:38;5.75;;;3.08;;
39874;SDS011;25547;52.530;13.194;2022-09-24T08:03:04;9.73;;;3.58;;
39874;SDS011;25547;52.530;13.194;2022-09-24T08:05:32;8.30;;;3.35;;
39874;SDS011;25547;52.530;13.194;2022-09-24T08:07:58;12.98;;;7.97;;
39874;SDS011;25547;52.530;13.194;2022-09-24T08:10:25;19.23;;;11.75;;
39874;SDS011;25547;52.530;13.194;2022-09-24T08:12:52;8.32;;;4.00;;
39874;SDS011;25547;52.530;13.194;2022-09-24T08:15:18;4.50;;;2.22;;
39874;SDS011;25547;52.530;13.194;2022-09-24T08:17:43;6.45;;;4.15;;
39874;SDS011;25547;52.530;13.194;2022-09-24T08:20:09;7.65;;;2.92;;
39874;SDS011;25547;52.530;13.194;2022-09-24T08:22:36;22.98;;;10.93;;
39874;SDS011;25547;52.530;13.194;2022-09-24T08:25:04;19.42;;;12.40;;
39874;SDS011;25547;52.530;13.194;2022-09-24T08:27:30;4.95;;;2.97;;
39874;SDS011;25547;52.530;13.194;2022-09-24T08:29:56;4.88;;;2.53;;
39874;SDS011;25547;52.530;13.194;2022-09-24T08:32:24;4.70;;;1.77;;
39874;SDS011;25547;52.530;13.194;2022-09-24T08:34:52;3.75;;;2.20;;
39874;SDS011;25547;52.530;13.194;2022-09-24T08:37:18;3.25;;;1.90;;
39874;SDS011;25547;52.530;13.194;2022-09-24T08:39:43;3.95;;;2.65;;
39874;SDS011;25547;52.530;13.194;2022-09-24T08:42:14;6.93;;;2.97;;
39874;SDS011;25547;52.530;13.194;2022-09-24T08:44:57;4.93;;;2.00;;
39874;SDS011;25547;52.530;13.194;2022-09-24T08:47:52;3.17;;;1.65;;
39874;SDS011;25547;52.530;13.194;2022-09-24T08:50:22;5.25;;;2.28;;
39874;SDS011;25547;52.530;13.194;2022-09-24T08:53:02;5.22;;;1.90;;
39874;SDS011;25547;52.530;13.194;2022-09-24T08:55:46;11.63;;;1.60;;
39874;SDS011;25547;52.530;13.194;2022-09-24T09:01:44;7.82;;;2.03;;
39874;SDS011;25547;52.530;13.194;2022-09-24T09:07:24;3.90;;;2.22;;
39874;SDS011;25547;52.530;13.194;2022-09-24T09:09:57;5.18;;;1.73;;
39874;SDS011;25547;52.530;13.194;2022-09-24T09:12:29;6.70;;;2.05;;
39874;SDS011;25547;52.530;13.194;2022-09-24T09:15:03;3.45;;;2.08;;
39874;SDS011;25547;52.530;13.194;2022-09-24T09:17:40;5.10;;;1.90;;
39874;SDS011;25547;52.530;13.194;2022-09-24T09:20:39;3.50;;;1.75;;
39874;SDS011;25547;52.530;13.194;2022-09-24T09:23:17;4.03;;;1.77;;
39874;SDS011;25547;52.530;13.194;2022-09-24T09:25:46;20.30;;;12.27;;
39874;SDS011;25547;52.530;13.194;2022-09-24T09:28:18;17.27;;;9.02;;
39874;SDS011;25547;52.530;13.194;2022-09-24T09:33:37;5.18;;;2.33;;
39874;SDS011;25547;52.530;13.194;2022-09-24T09:44:50;4.90;;;2.10;;
39874;SDS011;25547;52.530;13.194;2022-09-24T09:49:47;6.13;;;2.45;;
39874;SDS011;25547;52.530;13.194;2022-09-24T09:52:22;5.80;;;2.20;;
39874;SDS011;25547;52.530;13.194;2022-09-24T09:54:51;4.82;;;2.88;;
39874;SDS011;25547;52.530;13.194;2022-09-24T09:57:18;5.10;;;2.20;;
39874;SDS011;25547;52.530;13.194;2022-09-24T09:59:50;5.15;;;2.00;;
39874;SDS011;25547;52.530;13.194;2022-09-24T10:02:26;4.47;;;1.92;;
39874;SDS011;25547;52.530;13.194;2022-09-24T10:04:57;3.65;;;2.92;;
39874;SDS011;25547;52.530;13.194;2022-09-24T10:07:29;3.15;;;1.73;;
39874;SDS011;25547;52.530;13.194;2022-09-24T10:10:02;7.70;;;3.38;;
39874;SDS011;25547;52.530;13.194;2022-09-24T10:12:41;5.97;;;1.65;;
39874;SDS011;25547;52.530;13.194;2022-09-24T10:17:41;11.65;;;5.93;;
39874;SDS011;25547;52.530;13.194;2022-09-24T10:20:17;6.05;;;3.60;;
39874;SDS011;25547;52.530;13.194;2022-09-24T10:23:05;6.10;;;3.58;;
39874;SDS011;25547;52.530;13.194;2022-09-24T10:25:38;3.97;;;2.03;;
39874;SDS011;25547;52.530;13.194;2022-09-24T10:28:07;7.63;;;2.00;;
39874;SDS011;25547;52.530;13.194;2022-09-24T10:33:49;4.50;;;1.73;;
39874;SDS011;25547;52.530;13.194;2022-09-24T10:36:22;4.72;;;2.10;;
39874;SDS011;25547;52.530;13.194;2022-09-24T10:41:32;4.45;;;1.00;;
39874;SDS011;25547;52.530;13.194;2022-09-24T10:49:41;3.85;;;1.45;;
39874;SDS011;25547;52.530;13.194;2022-09-24T11:05:53;6.53;;;2.00;;
39874;SDS011;25547;52.530;13.194;2022-09-24T11:08:32;5.68;;;1.52;;
39874;SDS011;25547;52.530;13.194;2022-09-24T11:11:07;5.75;;;1.63;;
39874;SDS011;25547;52.530;13.194;2022-09-24T11:13:57;8.40;;;1.77;;
39874;SDS011;25547;52.530;13.194;2022-09-24T11:16:50;10.60;;;6.15;;
39874;SDS011;25547;52.530;13.194;2022-09-24T11:22:28;5.65;;;3.10;;
39874;SDS011;25547;52.530;13.194;2022-09-24T11:25:08;6.40;;;2.58;;
39874;SDS011;25547;52.530;13.194;2022-09-24T11:30:57;2.42;;;1.17;;
39874;SDS011;25547;52.530;13.194;2022-09-24T11:36:10;2.80;;;1.85;;
39874;SDS011;25547;52.530;13.194;2022-09-24T11:39:02;3.40;;;1.95;;
39874;SDS011;25547;52.530;13.194;2022-09-24T11:52:37;5.03;;;1.67;;
39874;SDS011;25547;52.530;13.194;2022-09-24T11:55:13;6.18;;;1.15;;
39874;SDS011;25547;52.530;13.194;2022-09-24T12:00:49;5.45;;;1.45;;
39874;SDS011;25547;52.530;13.194;2022-09-24T12:03:20;5.55;;;1.38;;
39874;SDS011;25547;52.530;13.194;2022-09-24T12:06:15;2.95;;;1.20;;
39874;SDS011;25547;52.530;13.194;2022-09-24T12:09:06;2.70;;;1.15;;
39874;SDS011;25547;52.530;13.194;2022-09-24T12:11:41;3.60;;;1.05;;
39874;SDS011;25547;52.530;13.194;2022-09-24T12:14:25;2.92;;;1.40;;
39874;SDS011;25547;52.530;13.194;2022-09-24T12:16:58;3.75;;;0.90;;
39874;SDS011;25547;52.530;13.194;2022-09-24T12:19:37;4.05;;;1.55;;
39874;SDS011;25547;52.530;13.194;2022-09-24T12:22:14;3.22;;;1.70;;
39874;SDS011;25547;52.530;13.194;2022-09-24T12:24:48;3.75;;;1.50;;
39874;SDS011;25547;52.530;13.194;2022-09-24T12:27:18;5.55;;;1.27;;
39874;SDS011;25547;52.530;13.194;2022-09-24T12:30:02;3.05;;;1.00;;
39874;SDS011;25547;52.530;13.194;2022-09-24T12:35:36;4.22;;;1.35;;
39874;SDS011;25547;52.530;13.194;2022-09-24T12:38:22;7.00;;;1.15;;
39874;SDS011;25547;52.530;13.194;2022-09-24T12:41:56;3.55;;;0.85;;
39874;SDS011;25547;52.530;13.194;2022-09-24T12:46:20;2.45;;;0.80;;
39874;SDS011;25547;52.530;13.194;2022-09-24T12:48:50;2.35;;;0.65;;
39874;SDS011;25547;52.530;13.194;2022-09-24T12:51:18;4.60;;;0.68;;
39874;SDS011;25547;52.530;13.194;2022-09-24T12:53:56;5.80;;;1.85;;
39874;SDS011;25547;52.530;13.194;2022-09-24T12:56:28;6.80;;;2.42;;
39874;SDS011;25547;52.530;13.194;2022-09-24T12:58:55;2.50;;;0.75;;
39874;SDS011;25547;52.530;13.194;2022-09-24T13:06:39;5.45;;;1.38;;
39874;SDS011;25547;52.530;13.194;2022-09-24T13:12:01;1.70;;;0.52;;
39874;SDS011;25547;52.530;13.194;2022-09-24T13:15:05;2.08;;;0.60;;
39874;SDS011;25547;52.530;13.194;2022-09-24T13:17:32;2.38;;;0.60;;
39874;SDS011;25547;52.530;13.194;2022-09-24T13:20:02;3.88;;;0.82;;
39874;SDS011;25547;52.530;13.194;2022-09-24T13:22:32;2.00;;;0.50;;
39874;SDS011;25547;52.530;13.194;2022-09-24T13:27:35;6.40;;;1.10;;
39874;SDS011;25547;52.530;13.194;2022-09-24T13:30:19;2.47;;;0.60;;
39874;SDS011;25547;52.530;13.194;2022-09-24T13:35:23;3.20;;;0.65;;
39874;SDS011;25547;52.530;13.194;2022-09-24T13:37:54;11.27;;;6.95;;
39874;SDS011;25547;52.530;13.194;2022-09-24T13:40:27;4.28;;;2.10;;
39874;SDS011;25547;52.530;13.194;2022-09-24T13:45:41;2.85;;;1.05;;
39874;SDS011;25547;52.530;13.194;2022-09-24T13:50:55;4.72;;;1.40;;
39874;SDS011;25547;52.530;13.194;2022-09-24T13:56:19;3.40;;;1.30;;
39874;SDS011;25547;52.530;13.194;2022-09-24T13:58:45;4.78;;;1.67;;
39874;SDS011;25547;52.530;13.194;2022-09-24T14:03:57;3.78;;;1.83;;
39874;SDS011;25547;52.530;13.194;2022-09-24T14:06:39;3.30;;;1.17;;
39874;SDS011;25547;52.530;13.194;2022-09-24T14:09:24;7.93;;;4.88;;
39874;SDS011;25547;52.530;13.194;2022-09-24T14:11:55;3.78;;;1.00;;
39874;SDS011;25547;52.530;13.194;2022-09-24T14:14:24;2.92;;;0.98;;
39874;SDS011;25547;52.530;13.194;2022-09-24T14:16:52;2.45;;;1.23;;
39874;SDS011;25547;52.530;13.194;2022-09-24T14:19:19;2.65;;;1.15;;
39874;SDS011;25547;52.530;13.194;2022-09-24T14:21:48;2.28;;;0.85;;
39874;SDS011;25547;52.530;13.194;2022-09-24T14:24:22;3.55;;;0.93;;
39874;SDS011;25547;52.530;13.194;2022-09-24T14:26:55;3.65;;;1.02;;
39874;SDS011;25547;52.530;13.194;2022-09-24T14:32:21;4.25;;;1.60;;
39874;SDS011;25547;52.530;13.194;2022-09-24T14:34:49;2.05;;;0.80;;
39874;SDS011;25547;52.530;13.194;2022-09-24T14:37:28;3.50;;;1.08;;
39874;SDS011;25547;52.530;13.194;2022-09-24T14:40:00;5.10;;;1.15;;
39874;SDS011;25547;52.530;13.194;2022-09-24T14:45:00;2.90;;;1.15;;
39874;SDS011;25547;52.530;13.194;2022-09-24T14:47:31;3.28;;;1.08;;
39874;SDS011;25547;52.530;13.194;2022-09-24T14:49:58;2.95;;;1.15;;
39874;SDS011;25547;52.530;13.194;2022-09-24T14:52:34;2.75;;;1.27;;
39874;SDS011;25547;52.530;13.194;2022-09-24T14:57:48;4.55;;;1.42;;
39874;SDS011;25547;52.530;13.194;2022-09-24T15:02:51;3.88;;;1.90;;
39874;SDS011;25547;52.530;13.194;2022-09-24T15:05:33;3.42;;;1.08;;
39874;SDS011;25547;52.530;13.194;2022-09-24T15:08:08;5.50;;;3.05;;
39874;SDS011;25547;52.530;13.194;2022-09-24T15:10:39;3.42;;;1.70;;
39874;SDS011;25547;52.530;13.194;2022-09-24T15:13:12;3.28;;;0.93;;
39874;SDS011;25547;52.530;13.194;2022-09-24T15:18:08;2.83;;;1.10;;
39874;SDS011;25547;52.530;13.194;2022-09-24T15:20:34;4.53;;;1.25;;
39874;SDS011;25547;52.530;13.194;2022-09-24T15:23:03;2.40;;;1.00;;
39874;SDS011;25547;52.530;13.194;2022-09-24T15:25:29;3.47;;;1.63;;
39874;SDS011;25547;52.530;13.194;2022-09-24T15:27:54;6.03;;;3.05;;
39874;SDS011;25547;52.530;13.194;2022-09-24T15:30:23;2.85;;;1.45;;
39874;SDS011;25547;52.530;13.194;2022-09-24T15:32:48;2.25;;;1.00;;
39874;SDS011;25547;52.530;13.194;2022-09-24T15:35:15;2.97;;;0.88;;
39874;SDS011;25547;52.530;13.194;2022-09-24T15:37:40;2.25;;;0.88;;
39874;SDS011;25547;52.530;13.194;2022-09-24T15:40:10;3.55;;;1.45;;
39874;SDS011;25547;52.530;13.194;2022-09-24T15:42:39;4.32;;;1.63;;
39874;SDS011;25547;52.530;13.194;2022-09-24T15:45:12;5.28;;;1.38;;
39874;SDS011;25547;52.530;13.194;2022-09-24T15:47:51;4.20;;;2.35;;
39874;SDS011;25547;52.530;13.194;2022-09-24T15:50:20;6.30;;;2.67;;
39874;SDS011;25547;52.530;13.194;2022-09-24T15:55:23;3.25;;;1.50;;
39874;SDS011;25547;52.530;13.194;2022-09-24T15:57:49;2.63;;;1.23;;
39874;SDS011;25547;52.530;13.194;2022-09-24T16:02:42;3.20;;;1.02;;
39874;SDS011;25547;52.530;13.194;2022-09-24T16:05:11;3.63;;;1.35;;
39874;SDS011;25547;52.530;13.194;2022-09-24T16:07:40;4.75;;;1.75;;
39874;SDS011;25547;52.530;13.194;2022-09-24T16:10:09;3.47;;;1.60;;
39874;SDS011;25547;52.530;13.194;2022-09-24T16:12:38;6.45;;;1.63;;
39874;SDS011;25547;52.530;13.194;2022-09-24T16:15:05;3.78;;;1.30;;
39874;SDS011;25547;52.530;13.194;2022-09-24T16:17:31;5.75;;;1.88;;
39874;SDS011;25547;52.530;13.194;2022-09-24T16:19:57;6.63;;;4.15;;
39874;SDS011;25547;52.530;13.194;2022-09-24T16:22:23;8.27;;;2.70;;
39874;SDS011;25547;52.530;13.194;2022-09-24T16:24:51;3.40;;;1.83;;
39874;SDS011;25547;52.530;13.194;2022-09-24T16:27:18;5.28;;;1.25;;
39874;SDS011;25547;52.530;13.194;2022-09-24T16:29:44;3.45;;;0.88;;
39874;SDS011;25547;52.530;13.194;2022-09-24T16:32:09;3.90;;;2.05;;
39874;SDS011;25547;52.530;13.194;2022-09-24T16:34:35;3.70;;;1.75;;
39874;SDS011;25547;52.530;13.194;2022-09-24T16:37:03;7.35;;;2.35;;
39874;SDS011;25547;52.530;13.194;2022-09-24T16:39:31;4.88;;;2.65;;
39874;SDS011;25547;52.530;13.194;2022-09-24T16:41:57;19.33;;;11.38;;
39874;SDS011;25547;52.530;13.194;2022-09-24T16:44:28;5.65;;;2.67;;
39874;SDS011;25547;52.530;13.194;2022-09-24T16:46:53;8.48;;;3.38;;
39874;SDS011;25547;52.530;13.194;2022-09-24T16:49:20;4.03;;;2.40;;
39874;SDS011;25547;52.530;13.194;2022-09-24T16:51:47;3.88;;;2.30;;
39874;SDS011;25547;52.530;13.194;2022-09-24T16:54:13;4.70;;;2.78;;
39874;SDS011;25547;52.530;13.194;2022-09-24T16:56:38;6.80;;;3.10;;
39874;SDS011;25547;52.530;13.194;2022-09-24T16:59:07;6.78;;;2.97;;
39874;SDS011;25547;52.530;13.194;2022-09-24T17:01:36;9.93;;;3.07;;
39874;SDS011;25547;52.530;13.194;2022-09-24T17:04:03;5.13;;;3.55;;
39874;SDS011;25547;52.530;13.194;2022-09-24T17:06:30;5.65;;;3.05;;
39874;SDS011;25547;52.530;13.194;2022-09-24T17:08:59;5.53;;;3.53;;
39874;SDS011;25547;52.530;13.194;2022-09-24T17:11:43;4.25;;;3.13;;
39874;SDS011;25547;52.530;13.194;2022-09-24T17:14:12;6.22;;;3.78;;
39874;SDS011;25547;52.530;13.194;2022-09-24T17:16:39;4.97;;;3.20;;
39874;SDS011;25547;52.530;13.194;2022-09-24T17:19:06;13.70;;;8.48;;
39874;SDS011;25547;52.530;13.194;2022-09-24T17:21:33;6.35;;;3.72;;
39874;SDS011;25547;52.530;13.194;2022-09-24T17:24:00;11.32;;;6.72;;
39874;SDS011;25547;52.530;13.194;2022-09-24T17:26:26;8.30;;;4.10;;
39874;SDS011;25547;52.530;13.194;2022-09-24T17:28:52;3.92;;;2.20;;
39874;SDS011;25547;52.530;13.194;2022-09-24T17:31:18;6.80;;;2.75;;
39874;SDS011;25547;52.530;13.194;2022-09-24T17:33:46;12.25;;;4.85;;
39874;SDS011;25547;52.530;13.194;2022-09-24T17:36:19;6.30;;;3.20;;
39874;SDS011;25547;52.530;13.194;2022-09-24T17:38:45;5.47;;;3.97;;
39874;SDS011;25547;52.530;13.194;2022-09-24T17:41:11;8.85;;;4.53;;
39874;SDS011;25547;52.530;13.194;2022-09-24T17:43:38;8.00;;;4.72;;
39874;SDS011;25547;52.530;13.194;2022-09-24T17:46:14;4.65;;;3.55;;
39874;SDS011;25547;52.530;13.194;2022-09-24T17:48:45;6.68;;;3.85;;
39874;SDS011;25547;52.530;13.194;2022-09-24T17:51:15;7.70;;;4.10;;
39874;SDS011;25547;52.530;13.194;2022-09-24T17:53:47;7.13;;;4.28;;
39874;SDS011;25547;52.530;13.194;2022-09-24T17:56:16;5.72;;;4.18;;
39874;SDS011;25547;52.530;13.194;2022-09-24T17:58:45;7.80;;;4.60;;
39874;SDS011;25547;52.530;13.194;2022-09-24T18:01:15;6.00;;;4.00;;
39874;SDS011;25547;52.530;13.194;2022-09-24T18:03:50;6.28;;;3.83;;
39874;SDS011;25547;52.530;13.194;2022-09-24T18:06:17;7.30;;;5.05;;
39874;SDS011;25547;52.530;13.194;2022-09-24T18:08:45;5.45;;;2.97;;
39874;SDS011;25547;52.530;13.194;2022-09-24T18:11:11;6.10;;;3.75;;
39874;SDS011;25547;52.530;13.194;2022-09-24T18:13:48;10.10;;;4.88;;
39874;SDS011;25547;52.530;13.194;2022-09-24T18:16:25;7.63;;;4.35;;
39874;SDS011;25547;52.530;13.194;2022-09-24T18:18:53;8.15;;;4.85;;
39874;SDS011;25547;52.530;13.194;2022-09-24T18:21:21;7.22;;;4.18;;
39874;SDS011;25547;52.530;13.194;2022-09-24T18:23:53;10.70;;;4.97;;
39874;SDS011;25547;52.530;13.194;2022-09-24T18:26:23;11.60;;;4.93;;
39874;SDS011;25547;52.530;13.194;2022-09-24T18:28:54;9.75;;;5.13;;
39874;SDS011;25547;52.530;13.194;2022-09-24T18:31:22;10.80;;;5.20;;
39874;SDS011;25547;52.530;13.194;2022-09-24T18:33:52;9.33;;;5.43;;
39874;SDS011;25547;52.530;13.194;2022-09-24T18:36:23;6.95;;;4.68;;
39874;SDS011;25547;52.530;13.194;2022-09-24T18:38:51;4.53;;;3.50;;
39874;SDS011;25547;52.530;13.194;2022-09-24T18:41:19;5.25;;;3.03;;
39874;SDS011;25547;52.530;13.194;2022-09-24T18:43:49;9.88;;;2.72;;
39874;SDS011;25547;52.530;13.194;2022-09-24T18:46:18;6.97;;;3.40;;
39874;SDS011;25547;52.530;13.194;2022-09-24T18:48:49;7.00;;;4.07;;
39874;SDS011;25547;52.530;13.194;2022-09-24T18:53:43;5.28;;;3.65;;
39874;SDS011;25547;52.530;13.194;2022-09-24T18:56:09;4.00;;;2.83;;
39874;SDS011;25547;52.530;13.194;2022-09-24T18:58:38;5.90;;;2.63;;
39874;SDS011;25547;52.530;13.194;2022-09-24T19:01:04;6.95;;;3.22;;
39874;SDS011;25547;52.530;13.194;2022-09-24T19:03:33;5.22;;;3.22;;
39874;SDS011;25547;52.530;13.194;2022-09-24T19:06:01;4.15;;;2.90;;
39874;SDS011;25547;52.530;13.194;2022-09-24T19:08:32;4.60;;;2.33;;
39874;SDS011;25547;52.530;13.194;2022-09-24T19:11:03;3.95;;;2.30;;
39874;SDS011;25547;52.530;13.194;2022-09-24T19:13:38;5.65;;;2.67;;
39874;SDS011;25547;52.530;13.194;2022-09-24T19:16:06;4.32;;;2.55;;
39874;SDS011;25547;52.530;13.194;2022-09-24T19:18:36;6.00;;;2.00;;
39874;SDS011;25547;52.530;13.194;2022-09-24T19:21:03;5.32;;;2.30;;
39874;SDS011;25547;52.530;13.194;2022-09-24T19:23:36;5.43;;;2.30;;
39874;SDS011;25547;52.530;13.194;2022-09-24T19:26:03;5.05;;;2.28;;
39874;SDS011;25547;52.530;13.194;2022-09-24T19:28:33;4.00;;;2.03;;
39874;SDS011;25547;52.530;13.194;2022-09-24T19:30:59;3.33;;;2.00;;
39874;SDS011;25547;52.530;13.194;2022-09-24T19:33:28;3.50;;;1.60;;
39874;SDS011;25547;52.530;13.194;2022-09-24T19:35:54;7.15;;;2.38;;
39874;SDS011;25547;52.530;13.194;2022-09-24T19:38:26;4.00;;;1.73;;
39874;SDS011;25547;52.530;13.194;2022-09-24T19:43:28;3.95;;;2.00;;
39874;SDS011;25547;52.530;13.194;2022-09-24T19:45:58;3.97;;;1.65;;
39874;SDS011;25547;52.530;13.194;2022-09-24T19:48:34;4.20;;;1.42;;
39874;SDS011;25547;52.530;13.194;2022-09-24T19:51:02;3.33;;;1.42;;
39874;SDS011;25547;52.530;13.194;2022-09-24T19:53:30;19.92;;;10.15;;
39874;SDS011;25547;52.530;13.194;2022-09-24T19:55:56;5.22;;;3.58;;
39874;SDS011;25547;52.530;13.194;2022-09-24T19:58:22;3.75;;;2.60;;
39874;SDS011;25547;52.530;13.194;2022-09-24T20:00:49;6.68;;;2.60;;
39874;SDS011;25547;52.530;13.194;2022-09-24T20:03:17;4.82;;;2.47;;
39874;SDS011;25547;52.530;13.194;2022-09-24T20:05:43;4.53;;;2.40;;
39874;SDS011;25547;52.530;13.194;2022-09-24T20:08:12;4.18;;;2.35;;
39874;SDS011;25547;52.530;13.194;2022-09-24T20:10:41;3.83;;;1.60;;
39874;SDS011;25547;52.530;13.194;2022-09-24T20:13:08;2.60;;;1.60;;
39874;SDS011;25547;52.530;13.194;2022-09-24T20:15:40;3.58;;;2.50;;
39874;SDS011;25547;52.530;13.194;2022-09-24T20:18:06;3.38;;;2.30;;
39874;SDS011;25547;52.530;13.194;2022-09-24T20:20:35;5.28;;;2.53;;
39874;SDS011;25547;52.530;13.194;2022-09-24T20:23:01;4.68;;;3.03;;
39874;SDS011;25547;52.530;13.194;2022-09-24T20:25:31;3.72;;;2.15;;
39874;SDS011;25547;52.530;13.194;2022-09-24T20:28:17;5.55;;;3.28;;
39874;SDS011;25547;52.530;13.194;2022-09-24T20:30:42;3.90;;;2.78;;
39874;SDS011;25547;52.530;13.194;2022-09-24T20:33:09;4.22;;;3.13;;
39874;SDS011;25547;52.530;13.194;2022-09-24T20:35:37;7.47;;;3.13;;
39874;SDS011;25547;52.530;13.194;2022-09-24T20:38:08;6.70;;;2.88;;
39874;SDS011;25547;52.530;13.194;2022-09-24T20:40:34;4.25;;;2.92;;
39874;SDS011;25547;52.530;13.194;2022-09-24T20:43:00;7.00;;;4.18;;
39874;SDS011;25547;52.530;13.194;2022-09-24T20:45:26;7.00;;;4.13;;
39874;SDS011;25547;52.530;13.194;2022-09-24T20:47:52;6.00;;;4.38;;
39874;SDS011;25547;52.530;13.194;2022-09-24T20:50:17;8.90;;;5.20;;
39874;SDS011;25547;52.530;13.194;2022-09-24T20:52:43;6.63;;;4.47;;
39874;SDS011;25547;52.530;13.194;2022-09-24T20:55:12;6.20;;;4.03;;
39874;SDS011;25547;52.530;13.194;2022-09-24T20:57:45;7.38;;;4.35;;
39874;SDS011;25547;52.530;13.194;2022-09-24T21:00:11;9.07;;;4.70;;
39874;SDS011;25547;52.530;13.194;2022-09-24T21:02:38;5.10;;;3.88;;
39874;SDS011;25547;52.530;13.194;2022-09-24T21:05:05;5.07;;;3.75;;
39874;SDS011;25547;52.530;13.194;2022-09-24T21:07:34;5.85;;;4.50;;
39874;SDS011;25547;52.530;13.194;2022-09-24T21:10:04;8.85;;;4.72;;
39874;SDS011;25547;52.530;13.194;2022-09-24T21:12:31;6.80;;;4.57;;
39874;SDS011;25547;52.530;13.194;2022-09-24T21:14:57;5.30;;;4.47;;
39874;SDS011;25547;52.530;13.194;2022-09-24T21:17:23;6.80;;;4.90;;
39874;SDS011;25547;52.530;13.194;2022-09-24T21:19:51;6.75;;;3.72;;
39874;SDS011;25547;52.530;13.194;2022-09-24T21:22:17;9.60;;;5.00;;
39874;SDS011;25547;52.530;13.194;2022-09-24T21:24:46;5.78;;;4.45;;
39874;SDS011;25547;52.530;13.194;2022-09-24T21:27:18;6.35;;;4.90;;
39874;SDS011;25547;52.530;13.194;2022-09-24T21:29:44;6.90;;;5.00;;
39874;SDS011;25547;52.530;13.194;2022-09-24T21:32:11;6.90;;;5.38;;
39874;SDS011;25547;52.530;13.194;2022-09-24T21:34:41;7.43;;;5.25;;
39874;SDS011;25547;52.530;13.194;2022-09-24T21:37:12;6.45;;;4.20;;
39874;SDS011;25547;52.530;13.194;2022-09-24T21:39:39;14.85;;;6.95;;
39874;SDS011;25547;52.530;13.194;2022-09-24T21:42:08;7.40;;;5.90;;
39874;SDS011;25547;52.530;13.194;2022-09-24T21:44:38;7.57;;;5.32;;
39874;SDS011;25547;52.530;13.194;2022-09-24T21:47:05;11.05;;;5.63;;
39874;SDS011;25547;52.530;13.194;2022-09-24T21:49:34;8.00;;;5.88;;
39874;SDS011;25547;52.530;13.194;2022-09-24T21:52:00;7.93;;;5.57;;
39874;SDS011;25547;52.530;13.194;2022-09-24T21:54:31;6.65;;;5.70;;
39874;SDS011;25547;52.530;13.194;2022-09-24T21:57:00;13.27;;;6.60;;
39874;SDS011;25547;52.530;13.194;2022-09-24T21:59:26;9.25;;;5.80;;
39874;SDS011;25547;52.530;13.194;2022-09-24T22:02:13;7.10;;;5.93;;
39874;SDS011;25547;52.530;13.194;2022-09-24T22:04:40;10.73;;;6.47;;
39874;SDS011;25547;52.530;13.194;2022-09-24T22:07:08;10.00;;;6.30;;
39874;SDS011;25547;52.530;13.194;2022-09-24T22:09:34;8.82;;;6.30;;
39874;SDS011;25547;52.530;13.194;2022-09-24T22:12:01;10.02;;;6.18;;
39874;SDS011;25547;52.530;13.194;2022-09-24T22:14:30;12.75;;;7.00;;
39874;SDS011;25547;52.530;13.194;2022-09-24T22:16:58;8.70;;;7.35;;
39874;SDS011;25547;52.530;13.194;2022-09-24T22:19:27;11.68;;;7.72;;
39874;SDS011;25547;52.530;13.194;2022-09-24T22:21:57;10.10;;;8.38;;
39874;SDS011;25547;52.530;13.194;2022-09-24T22:24:25;9.10;;;7.47;;
39874;SDS011;25547;52.530;13.194;2022-09-24T22:26:51;9.55;;;6.55;;
39874;SDS011;25547;52.530;13.194;2022-09-24T22:29:17;7.97;;;6.80;;
39874;SDS011;25547;52.530;13.194;2022-09-24T22:31:45;9.63;;;6.93;;
39874;SDS011;25547;52.530;13.194;2022-09-24T22:34:11;9.88;;;7.03;;
39874;SDS011;25547;52.530;13.194;2022-09-24T22:36:55;12.57;;;8.07;;
39874;SDS011;25547;52.530;13.194;2022-09-24T22:39:21;9.80;;;7.45;;
39874;SDS011;25547;52.530;13.194;2022-09-24T22:41:51;9.40;;;7.40;;
39874;SDS011;25547;52.530;13.194;2022-09-24T22:44:17;8.13;;;6.57;;
39874;SDS011;25547;52.530;13.194;2022-09-24T22:46:43;11.70;;;7.40;;
39874;SDS011;25547;52.530;13.194;2022-09-24T22:49:09;10.57;;;7.63;;
39874;SDS011;25547;52.530;13.194;2022-09-24T22:51:34;12.60;;;8.18;;
39874;SDS011;25547;52.530;13.194;2022-09-24T22:54:02;10.68;;;8.70;;
39874;SDS011;25547;52.530;13.194;2022-09-24T22:56:28;9.27;;;6.57;;
39874;SDS011;25547;52.530;13.194;2022-09-24T22:58:58;9.82;;;7.82;;
39874;SDS011;25547;52.530;13.194;2022-09-24T23:01:25;14.55;;;9.07;;
39874;SDS011;25547;52.530;13.194;2022-09-24T23:03:55;8.52;;;7.53;;
39874;SDS011;25547;52.530;13.194;2022-09-24T23:06:22;10.13;;;7.20;;
39874;SDS011;25547;52.530;13.194;2022-09-24T23:08:49;8.20;;;6.97;;
39874;SDS011;25547;52.530;13.194;2022-09-24T23:11:17;7.78;;;6.60;;
39874;SDS011;25547;52.530;13.194;2022-09-24T23:14:00;8.87;;;7.40;;
39874;SDS011;25547;52.530;13.194;2022-09-24T23:16:28;9.10;;;7.05;;
39874;SDS011;25547;52.530;13.194;2022-09-24T23:18:56;8.90;;;7.13;;
39874;SDS011;25547;52.530;13.194;2022-09-24T23:21:24;8.52;;;6.78;;
39874;SDS011;25547;52.530;13.194;2022-09-24T23:23:52;19.38;;;8.18;;
39874;SDS011;25547;52.530;13.194;2022-09-24T23:26:18;8.13;;;6.88;;
39874;SDS011;25547;52.530;13.194;2022-09-24T23:28:48;9.68;;;7.55;;
39874;SDS011;25547;52.530;13.194;2022-09-24T23:31:20;14.90;;;6.85;;